Time;durP1;ratioP1;P1;durP2;ratioP2;P2;SDS_P1;SDS_P2;PMS_P1;PMS_P2;Temp;Humidity;BMP_temperature;BMP_pressure;BME280_temperature;BME280_humidity;BME280_pressure;Samples;Min_cycle;Max_cycle;Signal;HPM_P1;HPM_P2
2022/06/06 00:00:53;;;;;;;0.50;0.50;;;;;;;21.16;60.67;99579.22;5073951;28;20057;-67
2022/06/06 00:03:23;;;;;;;0.57;0.57;;;;;;;21.15;60.51;99586.16;5073461;28;20064;-67
2022/06/06 00:05:51;;;;;;;;;;;;;;;21.09;60.27;99577.81;5056056;28;20494;-67
2022/06/06 00:08:20;;;;;;;0.75;0.75;;;;;;;21.02;60.62;99574.59;5073536;28;19925;-67
2022/06/06 00:10:57;;;;;;;1.57;1.40;;;;;;;21.02;59.87;99559.00;5073421;28;20090;-67
2022/06/06 00:13:26;;;;;;;1.77;1.60;;;;;;;21.12;58.42;99570.72;5073573;28;20490;-67
2022/06/06 00:15:54;;;;;;;0.80;0.80;;;;;;;21.16;57.51;99566.22;5073606;28;20430;-67
2022/06/06 00:18:26;;;;;;;0.90;0.90;;;;;;;21.13;58.00;99576.75;5073774;28;20505;-67
2022/06/06 00:20:55;;;;;;;1.67;1.20;;;;;;;21.12;57.26;99586.28;5073129;28;20036;-67
2022/06/06 00:23:25;;;;;;;1.60;1.50;;;;;;;21.00;57.96;99599.78;5073327;28;20273;-66
2022/06/06 00:25:56;;;;;;;1.63;0.88;;;;;;;20.90;59.79;99606.28;5073272;28;20138;-65
2022/06/06 00:28:34;;;;;;;1.27;1.10;;;;;;;20.65;60.82;99616.03;5074215;28;20135;-65
2022/06/06 00:36:32;;;;;;;2.08;1.42;;;;;;;20.25;62.67;99616.03;5073507;28;20040;-66
2022/06/06 00:39:01;;;;;;;1.65;0.70;;;;;;;20.21;63.26;99622.19;5073204;28;20128;-66
2022/06/06 00:41:31;;;;;;;0.88;0.80;;;;;;;20.24;63.51;99635.06;5073147;28;20145;-66
2022/06/06 00:44:05;;;;;;;1.92;1.50;;;;;;;20.14;64.15;99639.75;5073293;28;20056;-67
2022/06/06 00:46:41;;;;;;;1.17;1.00;;;;;;;20.04;64.34;99641.88;5075150;28;20090;-66
2022/06/06 00:49:16;;;;;;;1.40;1.30;;;;;;;19.98;64.17;99646.44;5077063;28;20048;-66
2022/06/06 00:51:45;;;;;;;1.02;0.93;;;;;;;19.93;64.93;99654.41;5077024;28;20060;-66
2022/06/06 00:54:22;;;;;;;1.77;1.35;;;;;;;19.75;65.43;99662.88;5076781;28;20097;-66
2022/06/06 00:59:50;;;;;;;0.90;0.90;;;;;;;19.52;66.74;99665.50;5075928;28;20468;-66
2022/06/06 01:02:20;;;;;;;6.32;2.47;;;;;;;19.53;67.47;99656.00;5077252;28;20464;-66
2022/06/06 01:04:49;;;;;;;1.30;0.82;;;;;;;19.51;68.27;99663.78;5076994;28;20379;-66
2022/06/06 01:07:18;;;;;;;1.13;1.02;;;;;;;19.51;68.79;99674.16;5076728;28;20048;-66
2022/06/06 01:09:50;;;;;;;1.00;0.80;;;;;;;19.52;68.86;99685.38;5077211;28;20045;-66
2022/06/06 01:12:23;;;;;;;0.95;0.90;;;;;;;19.54;68.96;99681.81;5076530;28;20048;-66
2022/06/06 01:14:55;;;;;;;0.60;0.60;;;;;;;19.49;68.87;99696.69;5076885;28;20375;-66
2022/06/06 01:17:34;;;;;;;4.38;2.08;;;;;;;19.56;68.79;99692.97;5058704;28;20048;-66
2022/06/06 01:20:23;;;;;;;1.05;0.98;;;;;;;19.64;67.88;99688.34;5076740;28;20050;-67
2022/06/06 01:23:20;;;;;;;0.95;0.95;;;;;;;19.68;67.53;99702.00;5076408;28;20135;-67
2022/06/06 01:26:13;;;;;;;1.17;1.10;;;;;;;19.77;67.63;99710.28;5058591;28;20131;-66
2022/06/06 01:28:55;;;;;;;0.70;0.70;;;;;;;19.71;68.24;99705.34;5076336;28;20041;-66
2022/06/06 01:31:29;;;;;;;6.50;1.10;;;;;;;19.68;67.98;99708.03;5076223;28;20048;-66
2022/06/06 01:34:08;;;;;;;1.25;1.15;;;;;;;19.64;67.66;99711.66;5076073;28;20056;-66
2022/06/06 01:36:40;;;;;;;2.75;1.23;;;;;;;19.52;67.84;99699.16;5076481;28;20496;-66
2022/06/06 01:39:12;;;;;;;1.55;1.45;;;;;;;19.47;68.70;99703.66;5076249;28;20051;-66
2022/06/06 01:41:49;;;;;;;0.82;0.82;;;;;;;19.47;68.76;99708.00;5076099;28;20601;-66
2022/06/06 01:44:28;;;;;;;0.70;0.70;;;;;;;19.43;68.77;99702.09;5076342;28;20044;-66
2022/06/06 01:47:00;;;;;;;5.38;2.67;;;;;;;19.35;68.93;99704.91;5076076;28;20051;-66
2022/06/06 01:49:33;;;;;;;0.88;0.75;;;;;;;19.31;69.45;99707.69;5076222;28;20375;-66
2022/06/06 01:52:07;;;;;;;1.02;0.93;;;;;;;19.30;69.63;99717.19;5075975;28;20049;-66
2022/06/06 01:54:36;;;;;;;1.55;1.45;;;;;;;19.26;69.67;99709.56;5076132;28;20123;-66
2022/06/06 01:57:07;;;;;;;0.70;0.70;;;;;;;19.24;69.86;99711.38;5075886;28;20044;-66
2022/06/06 01:59:37;;;;;;;1.10;1.00;;;;;;;19.29;69.98;99709.47;5075515;28;20048;-66
2022/06/06 02:02:06;;;;;;;10.25;2.72;;;;;;;19.35;69.65;99715.28;5075686;28;20044;-66
2022/06/06 02:04:35;;;;;;;1.55;1.33;;;;;;;19.40;68.88;99702.19;5075992;28;20052;-66
2022/06/06 02:07:06;;;;;;;1.40;1.10;;;;;;;19.31;68.60;99708.53;5075947;28;20114;-66
2022/06/06 02:09:35;;;;;;;1.20;1.15;;;;;;;19.24;68.94;99706.22;5075591;28;20048;-66
2022/06/06 02:12:04;;;;;;;1.45;1.35;;;;;;;19.19;69.44;99705.53;5075536;28;20124;-66
2022/06/06 02:14:33;;;;;;;0.85;0.85;;;;;;;19.18;69.56;99706.41;5075379;28;20561;-66
2022/06/06 02:17:06;;;;;;;0.83;0.83;;;;;;;19.18;69.83;99706.41;5075778;28;20040;-66
2022/06/06 02:19:35;;;;;;;1.13;0.90;;;;;;;19.06;69.78;99687.00;5075440;28;20052;-66
2022/06/06 02:22:04;;;;;;;2.33;1.97;;;;;;;18.96;70.25;99701.13;5075658;28;20426;-66
2022/06/06 02:24:33;;;;;;;2.35;1.25;;;;;;;18.85;70.63;99703.25;5075548;28;20055;-66
2022/06/06 02:27:02;;;;;;;1.05;0.95;;;;;;;18.79;70.77;99698.28;5075240;28;20174;-66
2022/06/06 02:29:31;;;;;;;1.40;1.30;;;;;;;18.69;70.99;99697.72;5075199;28;20044;-66
2022/06/06 02:31:59;;;;;;;1.30;1.20;;;;;;;18.54;71.49;99698.25;5075114;28;20409;-66
2022/06/06 02:34:30;;;;;;;0.80;0.80;;;;;;;18.42;72.18;99688.28;5075089;28;20175;-66
2022/06/06 02:36:59;;;;;;;1.75;1.63;;;;;;;18.36;72.56;99691.06;5075139;28;20071;-66
2022/06/06 02:39:28;;;;;;;0.80;0.80;;;;;;;18.39;72.65;99688.38;5075057;28;20045;-67
2022/06/06 02:41:57;;;;;;;1.30;1.20;;;;;;;18.42;72.80;99693.47;5074964;28;20518;-66
2022/06/06 02:44:26;;;;;;;2.35;1.30;;;;;;;18.38;72.77;99689.25;5074765;28;20041;-66
2022/06/06 02:46:55;;;;;;;1.58;1.38;;;;;;;18.33;72.90;99688.56;5074811;28;20068;-66
2022/06/06 02:49:24;;;;;;;3.25;1.77;;;;;;;18.47;72.94;99696.78;5074841;28;20045;-66
2022/06/06 02:51:54;;;;;;;2.10;1.23;;;;;;;18.58;72.29;99692.09;5074873;28;20040;-66
2022/06/06 02:54:23;;;;;;;0.93;0.93;;;;;;;18.68;71.72;99690.03;5074677;28;20052;-67
2022/06/06 02:56:54;;;;;;;2.03;1.23;;;;;;;18.79;70.93;99695.69;5074769;28;20048;-67
2022/06/06 02:59:25;;;;;;;1.40;1.27;;;;;;;18.81;70.47;99693.06;5074495;28;20102;-66
2022/06/06 03:01:54;;;;;;;1.45;1.35;;;;;;;18.85;70.11;99692.06;5074787;28;20036;-66
2022/06/06 03:04:28;;;;;;;1.87;1.67;;;;;;;18.92;69.69;99689.22;5074459;28;20048;-66
2022/06/06 03:07:11;;;;;;;0.70;0.70;;;;;;;19.01;69.32;99685.44;5074420;28;20331;-66
2022/06/06 03:09:49;;;;;;;1.27;1.13;;;;;;;19.07;68.66;99685.25;5074155;28;20048;-66
2022/06/06 03:12:39;;;;;;;2.13;1.07;;;;;;;19.05;68.60;99685.28;5074494;28;20055;-66
2022/06/06 03:15:30;;;;;;;1.63;1.25;;;;;;;19.10;68.10;99687.75;5074724;28;20553;-66
2022/06/06 03:21:12;;;;;;;1.33;1.00;;;;;;;19.19;68.85;99684.81;5074493;28;20083;-66
2022/06/06 03:24:05;;;;;;;1.27;1.17;;;;;;;19.14;69.09;99690.16;5074481;28;20154;-67
2022/06/06 03:26:46;;;;;;;1.55;1.45;;;;;;;19.12;69.05;99685.94;5074216;28;20421;-67
2022/06/06 03:29:32;;;;;;;0.95;0.95;;;;;;;18.94;69.79;99678.81;5073915;28;20061;-67
2022/06/06 03:32:07;;;;;;;1.10;1.00;;;;;;;18.87;70.63;99679.91;5073950;28;20050;-66
2022/06/06 03:34:45;;;;;;;1.77;1.13;;;;;;;18.77;71.24;99681.13;5073926;28;20048;-66
2022/06/06 03:37:21;;;;;;;1.35;1.25;;;;;;;18.77;70.69;99678.53;5074049;28;20044;-66
2022/06/06 03:40:00;;;;;;;1.85;1.25;;;;;;;18.77;70.88;99676.78;5073803;28;20131;-66
2022/06/06 03:42:36;;;;;;;0.95;0.90;;;;;;;18.83;71.03;99674.00;5073740;28;20072;-66
2022/06/06 03:45:17;;;;;;;0.93;0.88;;;;;;;18.78;71.44;99673.31;5074039;28;20049;-66
2022/06/06 03:47:57;;;;;;;1.35;1.25;;;;;;;18.76;71.78;99676.84;5073557;28;20090;-66
2022/06/06 03:50:35;;;;;;;4.50;1.80;;;;;;;18.72;71.75;99676.94;5073780;28;20052;-66
2022/06/06 03:53:08;;;;;;;3.03;1.77;;;;;;;18.71;72.13;99674.44;5073731;28;20056;-66
2022/06/06 03:55:55;;;;;;;0.93;0.85;;;;;;;18.76;72.31;99672.53;5073725;28;20044;-66
2022/06/06 03:58:29;;;;;;;1.52;1.40;;;;;;;18.82;72.29;99671.47;5073506;28;20139;-67
2022/06/06 04:01:00;;;;;;;2.33;1.63;;;;;;;18.82;72.20;99661.13;5073661;28;20135;-66
2022/06/06 04:03:32;;;;;;;1.35;1.02;;;;;;;18.79;72.10;99661.25;5073948;28;20107;-66
2022/06/06 04:06:03;;;;;;;1.23;1.13;;;;;;;18.76;72.18;99657.03;5073768;28;20398;-66
2022/06/06 04:08:33;;;;;;;2.10;1.55;;;;;;;18.71;72.22;99664.91;5073372;28;20131;-66
2022/06/06 04:11:16;;;;;;;2.00;1.55;;;;;;;18.78;71.79;99662.13;5073392;28;20048;-66
2022/06/06 04:13:57;;;;;;;1.30;0.98;;;;;;;18.80;71.88;99662.91;5073494;28;20080;-66
2022/06/06 04:16:40;;;;;;;1.13;1.02;;;;;;;18.84;71.89;99664.50;5073436;28;20048;-66
2022/06/06 04:19:21;;;;;;;1.85;1.45;;;;;;;18.91;71.45;99659.06;5073355;28;20439;-66
2022/06/06 04:22:00;;;;;;;1.20;0.88;;;;;;;19.03;71.19;99668.13;5073056;28;20462;-67
2022/06/06 04:24:46;;;;;;;0.60;0.60;;;;;;;19.03;71.25;99665.53;5073616;28;20398;-67
2022/06/06 04:27:28;;;;;;;1.40;1.08;;;;;;;19.00;71.98;99655.31;5073785;28;20490;-66
2022/06/06 04:30:03;;;;;;;0.60;0.60;;;;;;;18.99;71.80;99654.47;5073403;28;20055;-66
2022/06/06 04:32:46;;;;;;;1.23;1.13;;;;;;;19.02;72.10;99650.94;5073562;28;20049;-66
2022/06/06 04:35:21;;;;;;;4.55;1.40;;;;;;;19.04;72.30;99647.41;5073812;28;20075;-66
2022/06/06 04:37:57;;;;;;;1.20;1.10;;;;;;;19.11;71.44;99650.59;5073374;28;20051;-66
2022/06/06 04:40:37;;;;;;;1.75;1.02;;;;;;;19.15;71.79;99654.75;5073186;28;20123;-66
2022/06/06 04:43:15;;;;;;;0.65;0.65;;;;;;;19.22;70.75;99661.41;5073195;28;20064;-66
2022/06/06 04:45:52;;;;;;;3.20;1.20;;;;;;;19.31;69.90;99666.25;5073110;28;20079;-67
2022/06/06 04:48:22;;;;;;;1.15;1.02;;;;;;;19.34;68.56;99671.31;5073689;28;20036;-67
2022/06/06 04:51:08;;;;;;;1.25;1.15;;;;;;;19.53;68.13;99677.53;5073111;28;20498;-67
2022/06/06 04:53:50;;;;;;;2.65;2.13;;;;;;;19.69;68.31;99678.66;5073361;28;20048;-67
2022/06/06 04:56:21;;;;;;;2.05;1.65;;;;;;;19.81;68.46;99673.03;5072959;28;20048;-67
2022/06/06 04:59:03;;;;;;;0.80;0.80;;;;;;;19.90;68.57;99683.03;5072994;28;20052;-67
2022/06/06 05:01:34;;;;;;;1.55;1.45;;;;;;;19.85;68.70;99664.22;5073112;28;20124;-67
2022/06/06 05:04:19;;;;;;;1.50;1.40;;;;;;;19.97;69.21;99686.22;5073291;28;20049;-67
2022/06/06 05:07:07;;;;;;;1.00;0.95;;;;;;;20.11;69.60;99690.88;5073175;28;20044;-67
2022/06/06 05:09:56;;;;;;;0.98;0.93;;;;;;;20.16;69.83;99699.28;5073304;28;20135;-67
2022/06/06 05:13:00;;;;;;;0.70;0.70;;;;;;;20.26;70.44;99705.84;5072646;28;20049;-67
2022/06/06 05:15:47;;;;;;;1.40;1.23;;;;;;;20.39;70.56;99709.63;5072708;28;20044;-67
2022/06/06 05:18:39;;;;;;;1.38;1.27;;;;;;;20.48;70.94;99709.25;5072695;28;20041;-67
2022/06/06 05:21:25;;;;;;;1.33;0.88;;;;;;;20.56;71.51;99715.00;5067881;28;20132;-68
2022/06/06 05:24:16;;;;;;;1.35;1.25;;;;;;;20.53;71.92;99700.41;5045443;28;20433;-67
2022/06/06 05:27:02;;;;;;;1.95;1.55;;;;;;;20.67;72.28;99712.78;5052682;28;20049;-67
2022/06/06 05:29:48;;;;;;;1.35;1.25;;;;;;;20.67;72.72;99717.97;5052828;28;20037;-65
2022/06/06 05:32:35;;;;;;;1.23;0.95;;;;;;;20.66;73.29;99742.22;5054142;28;20564;-67
2022/06/06 05:35:12;;;;;;;1.33;1.23;;;;;;;20.71;73.35;99745.47;5038756;28;20056;-67
2022/06/06 05:37:51;;;;;;;0.90;0.90;;;;;;;20.73;73.27;99746.28;5055956;28;20492;-67
2022/06/06 05:40:33;;;;;;;1.17;1.07;;;;;;;20.71;73.08;99748.06;5056041;28;20075;-67
2022/06/06 05:43:14;;;;;;;1.33;1.17;;;;;;;20.72;73.06;99752.38;5056050;28;20053;-67
2022/06/06 05:45:53;;;;;;;1.27;0.90;;;;;;;20.73;73.08;99754.06;5056238;28;20128;-68
2022/06/06 05:48:38;;;;;;;1.73;1.17;;;;;;;20.82;73.08;99748.50;5055955;28;20041;-67
2022/06/06 05:51:18;;;;;;;0.70;0.70;;;;;;;20.90;72.83;99751.59;5056081;28;20056;-67
2022/06/06 05:54:09;;;;;;;2.83;2.08;;;;;;;20.95;72.87;99744.47;5056136;28;20375;-68
2022/06/06 05:57:00;;;;;;;0.80;0.80;;;;;;;20.93;72.73;99746.28;5056034;28;20037;-66
2022/06/06 05:59:53;;;;;;;0.93;0.80;;;;;;;20.91;72.68;99735.13;5055635;28;20041;-68
2022/06/06 06:02:36;;;;;;;0.80;0.75;;;;;;;21.06;72.34;99750.09;5037981;28;20045;-67
2022/06/06 06:05:16;;;;;;;0.68;0.68;;;;;;;21.12;72.09;99752.41;5055575;28;20099;-67
2022/06/06 06:07:52;;;;;;;;;;;;;;;21.17;71.63;99760.00;5056113;28;20049;-67
2022/06/06 06:10:27;;;;;;;1.27;0.82;;;;;;;21.11;71.34;99760.28;5055729;28;19920;-67
2022/06/06 06:13:30;;;;;;;0.93;0.93;;;;;;;20.98;71.21;99749.53;5055423;28;20053;-68
2022/06/06 06:16:04;;;;;;;0.60;0.60;;;;;;;21.06;71.35;99768.25;5055498;28;20116;-67
2022/06/06 06:18:41;;;;;;;1.38;1.23;;;;;;;21.02;71.33;99766.66;5055240;28;20045;-67
2022/06/06 06:21:15;;;;;;;0.68;0.68;;;;;;;21.05;71.15;99763.97;5055498;28;20449;-67
2022/06/06 06:23:58;;;;;;;0.70;0.70;;;;;;;21.06;71.08;99768.25;5055080;28;20047;-68
2022/06/06 06:26:30;;;;;;;1.05;0.88;;;;;;;20.99;70.55;99772.00;5055434;28;20048;-66
2022/06/06 06:29:04;;;;;;;1.00;0.90;;;;;;;20.88;70.27;99762.94;5054948;28;20047;-67
2022/06/06 06:31:49;;;;;;;0.77;0.77;;;;;;;20.87;70.45;99756.94;5055105;28;20045;-67
2022/06/06 06:34:34;;;;;;;0.80;0.80;;;;;;;20.90;70.57;99759.38;5055349;28;20132;-68
2022/06/06 06:37:18;;;;;;;1.80;1.17;;;;;;;20.95;70.31;99764.38;5037548;28;20041;-67
2022/06/06 06:40:03;;;;;;;1.95;0.90;;;;;;;21.02;69.96;99764.06;5055362;28;20087;-67
2022/06/06 06:42:50;;;;;;;1.35;1.15;;;;;;;21.05;69.91;99771.75;5054688;28;20069;-67
2022/06/06 06:45:24;;;;;;;1.20;1.10;;;;;;;21.04;69.98;99772.63;5054040;28;20451;-68
2022/06/06 06:48:03;;;;;;;1.95;1.48;;;;;;;21.06;69.78;99765.66;5054562;28;20072;-68
2022/06/06 06:50:36;;;;;;;2.67;1.83;;;;;;;21.05;69.54;99766.56;5054672;28;20098;-67
2022/06/06 06:53:23;;;;;;;0.70;0.70;;;;;;;21.00;69.34;99768.47;5052211;28;20037;-67
2022/06/06 06:56:03;;;;;;;1.10;1.00;;;;;;;21.00;69.37;99758.09;5050985;28;20041;-67
2022/06/06 06:58:50;;;;;;;0.82;0.82;;;;;;;20.87;69.23;99751.75;5054424;28;20049;-68
2022/06/06 07:01:27;;;;;;;0.93;0.88;;;;;;;20.85;69.51;99748.34;5054671;28;20045;-68
2022/06/06 07:09:56;;;;;;;1.17;1.02;;;;;;;20.78;69.43;99757.28;5053733;28;20045;-68
2022/06/06 07:12:42;;;;;;;4.25;1.10;;;;;;;20.90;69.89;99756.78;5053944;28;20076;-67
2022/06/06 07:15:22;;;;;;;2.10;0.90;;;;;;;20.79;70.16;99758.97;5054191;28;20478;-68
2022/06/06 07:17:55;;;;;;;1.27;1.17;;;;;;;20.77;70.33;99760.81;5036529;28;20060;-67
2022/06/06 07:20:24;;;;;;;0.80;0.80;;;;;;;20.79;70.47;99758.13;5054149;28;20144;-67
2022/06/06 07:23:03;;;;;;;0.70;0.60;;;;;;;20.81;70.65;99754.56;5054072;28;20037;-68
2022/06/06 07:25:42;;;;;;;1.15;0.60;;;;;;;20.72;70.82;99757.56;5051368;28;20127;-68
2022/06/06 07:28:15;;;;;;;1.42;1.00;;;;;;;20.69;71.18;99755.06;5040706;28;20051;-67
2022/06/06 07:30:51;;;;;;;1.35;1.25;;;;;;;20.66;71.49;99750.00;5034127;28;20381;-67
2022/06/06 07:33:42;;;;;;;1.20;1.10;;;;;;;20.65;71.40;99753.53;5034238;28;20065;-68
2022/06/06 07:36:21;;;;;;;1.50;1.30;;;;;;;20.73;71.03;99748.88;5045775;28;20048;-66
2022/06/06 07:39:08;;;;;;;1.55;1.35;;;;;;;20.60;71.15;99739.88;5054331;28;20441;-67
2022/06/06 07:41:55;;;;;;;0.77;0.77;;;;;;;20.64;71.05;99751.81;5053526;28;20057;-67
2022/06/06 07:44:42;;;;;;;2.17;0.68;;;;;;;20.64;71.45;99744.03;5051731;28;20371;-68
2022/06/06 07:47:21;;;;;;;0.80;0.80;;;;;;;20.45;71.18;99722.34;5040891;28;20044;-67
2022/06/06 07:49:54;;;;;;;5.05;1.17;;;;;;;20.52;71.47;99739.34;5046867;28;20069;-67
2022/06/06 07:52:32;;;;;;;0.57;0.57;;;;;;;20.48;72.48;99741.22;5033771;28;20046;-67
2022/06/06 07:55:08;;;;;;;1.00;0.90;;;;;;;20.51;72.58;99743.72;5033152;28;20065;-67
2022/06/06 07:57:48;;;;;;;0.80;0.80;;;;;;;20.53;72.30;99738.44;5033920;28;20061;-67
2022/06/06 08:00:20;;;;;;;0.73;0.73;;;;;;;20.49;72.29;99739.50;5033519;28;20050;-66
2022/06/06 08:02:58;;;;;;;1.58;0.88;;;;;;;20.36;72.04;99748.66;5041388;28;20069;-67
2022/06/06 08:05:54;;;;;;;0.65;0.65;;;;;;;20.37;72.20;99748.56;5053372;28;20147;-67
2022/06/06 08:08:33;;;;;;;1.05;0.90;;;;;;;20.35;72.07;99747.78;5053418;28;20051;-67
2022/06/06 08:11:10;;;;;;;0.63;0.63;;;;;;;20.46;72.29;99755.16;5054048;28;20482;-68
2022/06/06 08:13:52;;;;;;;0.60;0.60;;;;;;;20.61;72.00;99754.56;5053702;28;20060;-70
2022/06/06 08:16:27;;;;;;;1.23;1.10;;;;;;;20.76;71.92;99748.72;5050184;28;20048;-67
2022/06/06 08:19:14;;;;;;;1.48;1.05;;;;;;;20.83;72.41;99754.53;5042059;28;20129;-67
2022/06/06 08:21:46;;;;;;;1.05;0.98;;;;;;;20.87;72.49;99756.94;5053632;28;20510;-68
2022/06/06 08:24:18;;;;;;;0.73;0.73;;;;;;;20.88;72.29;99743.03;5032465;28;20045;-67
2022/06/06 08:27:10;;;;;;;0.88;0.85;;;;;;;21.01;71.95;99759.78;5033265;28;20042;-67
2022/06/06 08:29:43;;;;;;;1.40;0.95;;;;;;;21.07;71.74;99743.97;5035654;28;20041;-68
2022/06/06 08:32:12;;;;;;;0.75;0.73;;;;;;;21.17;71.69;99752.22;5047726;28;20140;-67
2022/06/06 08:34:42;;;;;;;1.13;1.02;;;;;;;21.35;71.38;99754.03;5045899;28;20069;-68
2022/06/06 08:37:28;;;;;;;1.33;1.23;;;;;;;21.33;71.36;99756.69;5051224;28;20076;-68
2022/06/06 08:40:09;;;;;;;0.80;0.80;;;;;;;21.38;71.26;99747.88;5033433;28;20049;-68
2022/06/06 08:42:53;;;;;;;2.28;1.05;;;;;;;21.56;70.76;99762.63;5037682;28;20119;-67
2022/06/06 08:45:50;;;;;;;1.67;0.90;;;;;;;21.70;69.78;99760.25;5046239;28;20041;-66
2022/06/06 08:48:39;;;;;;;1.02;0.98;;;;;;;21.73;68.75;99754.94;5053304;28;20449;-67
2022/06/06 08:51:40;;;;;;;0.60;0.60;;;;;;;21.83;67.76;99751.88;5052783;28;20521;-68
2022/06/06 08:54:34;;;;;;;0.93;0.93;;;;;;;21.99;65.90;99757.22;5053094;28;20045;-68
2022/06/06 08:57:10;;;;;;;1.00;0.80;;;;;;;22.19;64.87;99759.75;5052988;28;20044;-68
2022/06/06 09:00:07;;;;;;;0.52;0.52;;;;;;;22.34;63.94;99758.19;5052983;28;20482;-67
2022/06/06 09:03:07;;;;;;;0.50;0.50;;;;;;;22.60;64.30;99750.81;5053283;28;20045;-66
2022/06/06 09:06:04;;;;;;;0.77;0.65;;;;;;;22.75;63.85;99748.44;5051548;28;20047;-67
2022/06/06 09:09:05;;;;;;;0.52;0.52;;;;;;;22.87;63.62;99753.84;5042023;28;20033;-68
2022/06/06 09:12:04;;;;;;;0.50;0.50;;;;;;;23.09;62.90;99746.66;5050471;28;20125;-67
2022/06/06 09:15:02;;;;;;;0.65;0.65;;;;;;;23.20;61.85;99751.31;5045321;28;20034;-67
2022/06/06 09:17:56;;;;;;;0.60;0.60;;;;;;;23.30;61.95;99748.16;5039363;28;20582;-68
2022/06/06 09:20:48;;;;;;;0.70;0.70;;;;;;;23.63;61.45;99745.59;5056385;28;20495;-68
2022/06/06 09:23:42;;;;;;;0.88;0.88;;;;;;;23.65;60.44;99743.75;5060822;28;20068;-68
2022/06/06 09:26:24;;;;;;;0.70;0.70;;;;;;;23.86;59.65;99753.03;5007811;28;20045;-68
2022/06/06 09:29:19;;;;;;;0.40;0.40;;;;;;;23.94;59.03;99743.03;5055953;28;20486;-68
2022/06/06 09:32:38;;;;;;;0.60;0.60;;;;;;;24.05;58.89;99746.78;5052021;28;20045;-68
2022/06/06 09:35:32;;;;;;;0.40;0.40;;;;;;;24.12;58.08;99735.13;5049507;28;20055;-68
2022/06/06 09:38:15;;;;;;;0.50;0.50;;;;;;;24.25;57.89;99728.31;5064324;28;20254;-66
2022/06/06 09:41:11;;;;;;;0.50;0.50;;;;;;;24.29;57.38;99729.81;5076553;28;20439;-67
2022/06/06 09:43:56;;;;;;;0.57;0.57;;;;;;;24.26;57.31;99727.41;5068595;28;20108;-68
2022/06/06 09:46:48;;;;;;;0.93;0.82;;;;;;;24.47;57.60;99728.81;5055460;28;20052;-68
2022/06/06 09:49:47;;;;;;;0.63;0.63;;;;;;;24.74;56.52;99721.16;5036283;28;20088;-70
2022/06/06 09:52:45;;;;;;;0.63;0.63;;;;;;;25.02;56.18;99727.34;5035942;28;20141;-68
2022/06/06 09:59:04;;;;;;;11.70;1.27;;;;;;;24.87;56.60;99730.84;5031978;28;20079;-68
2022/06/06 10:01:51;;;;;;;0.73;0.70;;;;;;;24.81;56.85;99733.78;5024143;28;20041;-67
2022/06/06 10:04:42;;;;;;;0.40;0.40;;;;;;;24.88;56.88;99729.91;5049509;28;20131;-68
2022/06/06 10:07:32;;;;;;;0.40;0.40;;;;;;;25.07;57.44;99724.44;5035597;28;20041;-68
2022/06/06 10:10:29;;;;;;;0.60;0.60;;;;;;;25.48;57.11;99719.38;5035752;28;20499;-68
2022/06/06 10:13:28;;;;;;;0.70;0.70;;;;;;;25.67;54.92;99718.16;5035835;28;20406;-68
2022/06/06 10:16:25;;;;;;;0.82;0.82;;;;;;;25.81;54.38;99717.28;5035845;28;20120;-68
2022/06/06 10:19:12;;;;;;;0.60;0.60;;;;;;;25.81;54.02;99717.28;5043701;28;20033;-68
2022/06/06 10:22:01;;;;;;;0.50;0.50;;;;;;;25.60;54.71;99714.22;5055589;28;20514;-67
2022/06/06 10:24:55;;;;;;;0.43;0.43;;;;;;;25.56;53.41;99711.88;5055288;28;20045;-69
2022/06/06 10:27:45;;;;;;;0.50;0.50;;;;;;;25.73;52.42;99711.69;5053403;28;20052;-69
2022/06/06 10:30:22;;;;;;;0.50;0.50;;;;;;;26.01;52.29;99709.00;5055140;28;20041;-67
2022/06/06 10:33:20;;;;;;;0.50;0.50;;;;;;;25.91;52.26;99700.09;5055633;28;20072;-65
2022/06/06 10:36:00;;;;;;;0.50;0.50;;;;;;;25.86;51.96;99704.75;5055175;28;20045;-68
2022/06/06 10:38:59;;;;;;;0.60;0.60;;;;;;;26.06;53.45;99706.94;5054058;28;20406;-69
2022/06/06 10:41:49;;;;;;;0.57;0.57;;;;;;;26.21;51.80;99711.25;5055532;28;20049;-69
2022/06/06 10:44:51;;;;;;;0.52;0.52;;;;;;;26.52;51.89;99697.84;5051449;28;20498;-69
2022/06/06 10:47:42;;;;;;;0.50;0.50;;;;;;;26.52;50.92;99695.22;5048578;28;20063;-70
2022/06/06 10:50:17;;;;;;;0.50;0.50;;;;;;;26.13;50.87;99691.75;5054965;28;20126;-68
2022/06/06 10:53:12;;;;;;;0.70;0.70;;;;;;;26.04;52.16;99689.66;5054775;28;20059;-69
2022/06/06 10:56:05;;;;;;;0.47;0.47;;;;;;;26.03;52.47;99683.63;5052879;28;20434;-69
2022/06/06 10:58:56;;;;;;;0.40;0.40;;;;;;;26.09;51.83;99685.81;5054253;28;20037;-70
2022/06/06 11:02:05;;;;;;;0.40;0.40;;;;;;;26.16;51.36;99687.13;5054521;28;20039;-69
2022/06/06 11:04:52;;;;;;;;;;;;;;;26.07;50.96;99687.69;5054878;28;20095;-67
2022/06/06 11:07:49;;;;;;;0.50;0.50;;;;;;;25.82;50.99;99684.94;5054792;28;20377;-67
2022/06/06 11:10:41;;;;;;;0.50;0.50;;;;;;;25.62;51.63;99681.00;5054808;28;20102;-68
2022/06/06 11:13:30;;;;;;;0.50;0.50;;;;;;;25.54;51.29;99671.94;5053263;28;20504;-67
2022/06/06 11:16:26;;;;;;;0.52;0.50;;;;;;;25.46;51.83;99674.19;5034507;28;20376;-69
2022/06/06 11:19:17;;;;;;;0.60;0.60;;;;;;;25.72;52.42;99671.59;5049857;28;20076;-68
2022/06/06 11:22:09;;;;;;;0.40;0.40;;;;;;;25.67;52.35;99672.84;5034118;28;20073;-69
2022/06/06 11:24:51;;;;;;;0.70;0.70;;;;;;;25.68;52.45;99669.28;5034234;28;20068;-68
2022/06/06 11:27:34;;;;;;;0.90;0.90;;;;;;;25.71;52.32;99663.88;5034016;28;20539;-69
2022/06/06 11:30:28;;;;;;;0.57;0.57;;;;;;;25.78;53.60;99665.16;5035133;28;20053;-66
2022/06/06 11:33:35;;;;;;;0.60;0.60;;;;;;;25.74;53.41;99661.06;5021242;28;20132;-68
2022/06/06 11:36:18;;;;;;;0.43;0.43;;;;;;;25.55;52.79;99650.94;5049099;28;20079;-69
2022/06/06 11:39:15;;;;;;;0.40;0.40;;;;;;;25.48;53.98;99651.41;5053880;28;20044;-68
2022/06/06 11:42:06;;;;;;;0.47;0.47;;;;;;;25.61;55.05;99653.16;5053109;28;20077;-69
2022/06/06 11:45:07;;;;;;;0.60;0.60;;;;;;;25.84;54.53;99654.34;5054105;28;20061;-69
2022/06/06 11:47:48;;;;;;;0.75;0.75;;;;;;;26.10;53.98;99656.13;5051881;28;20044;-69
2022/06/06 11:50:38;;;;;;;0.60;0.60;;;;;;;26.48;54.31;99651.84;5053842;28;20132;-68
2022/06/06 11:53:48;;;;;;;0.82;0.73;;;;;;;26.78;52.53;99645.53;5053748;28;20049;-69
2022/06/06 11:56:43;;;;;;;0.60;0.60;;;;;;;26.64;52.50;99646.41;5043658;28;20064;-68
2022/06/06 11:59:42;;;;;;;0.40;0.40;;;;;;;26.45;52.58;99652.06;5053551;28;20065;-69
2022/06/06 12:02:22;;;;;;;;;;;;;;;26.47;53.06;99647.53;5052700;28;20076;-69
2022/06/06 12:05:29;;;;;;;0.52;0.52;;;;;;;26.59;53.42;99644.13;5043600;28;19920;-69
2022/06/06 12:08:24;;;;;;;0.60;0.60;;;;;;;26.89;53.23;99645.66;5012815;28;20049;-69
2022/06/06 12:11:10;;;;;;;0.50;0.50;;;;;;;26.79;52.71;99636.72;5047380;28;20037;-68
2022/06/06 12:14:02;;;;;;;0.52;0.52;;;;;;;26.72;52.92;99643.28;5050031;28;20095;-69
2022/06/06 12:16:40;;;;;;;1.02;0.75;;;;;;;26.79;53.45;99631.47;5033386;28;20040;-69
2022/06/06 12:19:26;;;;;;;0.75;0.75;;;;;;;27.12;53.51;99637.03;5048864;28;20041;-70
2022/06/06 12:22:12;;;;;;;0.30;0.30;;;;;;;27.20;52.16;99639.97;5044014;28;20080;-69
2022/06/06 12:25:09;;;;;;;0.60;0.60;;;;;;;27.39;51.30;99632.53;5033342;28;20561;-69
2022/06/06 12:28:00;;;;;;;0.40;0.40;;;;;;;27.65;51.93;99626.25;5033539;28;20495;-69
2022/06/06 12:30:46;;;;;;;0.50;0.50;;;;;;;27.90;52.07;99631.44;5033687;28;20492;-68
2022/06/06 12:33:20;;;;;;;0.60;0.60;;;;;;;27.64;50.23;99624.56;5035265;28;20132;-66
2022/06/06 12:35:58;;;;;;;0.70;0.70;;;;;;;26.83;51.29;99631.16;5041953;28;20064;-68
2022/06/06 12:38:38;;;;;;;0.60;0.60;;;;;;;26.82;52.50;99624.28;5015653;28;20128;-68
2022/06/06 12:41:37;;;;;;;0.45;0.45;;;;;;;26.77;53.01;99625.53;5036902;28;20060;-69
2022/06/06 12:44:22;;;;;;;3.67;1.15;;;;;;;26.61;53.99;99621.28;5057438;28;20402;-68
2022/06/06 12:47:22;;;;;;;0.52;0.52;;;;;;;26.51;52.80;99620.22;5057272;28;20052;-68
2022/06/06 12:50:07;;;;;;;0.60;0.60;;;;;;;26.57;52.06;99609.34;5048319;28;20499;-69
2022/06/06 12:52:54;;;;;;;0.60;0.60;;;;;;;26.61;51.33;99597.72;5045555;28;20103;-69
2022/06/06 12:55:38;;;;;;;0.50;0.50;;;;;;;26.92;52.68;99604.34;5037182;28;20107;-69
2022/06/06 12:58:23;;;;;;;0.60;0.60;;;;;;;26.99;52.55;99591.66;5056327;28;20051;-68
2022/06/06 13:03:54;;;;;;;0.50;0.50;;;;;;;26.80;50.85;99604.38;5047073;28;20041;-68
2022/06/06 13:06:35;;;;;;;0.60;0.60;;;;;;;27.06;51.07;99600.78;5053223;28;20049;-68